Time;durP1;ratioP1;P1;durP2;ratioP2;P2;SDS_P1;SDS_P2;PMS_P1;PMS_P2;Temp;Humidity;BMP_temperature;BMP_pressure;BME280_temperature;BME280_humidity;BME280_pressure;Samples;Min_cycle;Max_cycle;Signal;HPM_P1;HPM_P2
2021/05/10 00:00:44;;;;;;;2.03;1.83;;;18.70;98.50;;;;;;485069;245;28832;-70
2021/05/10 00:02:45;;;;;;;1.80;1.70;;;18.60;98.90;;;;;;485053;245;28751;-70
2021/05/10 00:04:46;;;;;;;3.77;2.27;;;18.60;98.80;;;;;;485040;245;28784;-70
2021/05/10 00:06:48;;;;;;;1.97;1.80;;;18.60;98.90;;;;;;485068;245;29385;-73
2021/05/10 00:08:49;;;;;;;5.43;2.27;;;18.60;99.50;;;;;;485053;245;29264;-70
2021/05/10 00:10:50;;;;;;;5.37;1.97;;;18.60;99.90;;;;;;485035;245;29295;-71
2021/05/10 00:12:51;;;;;;;2.77;2.30;;;18.50;99.90;;;;;;485038;245;28849;-70
2021/05/10 00:14:53;;;;;;;1.93;1.80;;;18.50;99.90;;;;;;485008;245;28784;-70
2021/05/10 00:16:54;;;;;;;3.33;1.87;;;18.30;99.90;;;;;;485022;245;28799;-72
2021/05/10 00:18:55;;;;;;;2.80;2.13;;;18.20;99.90;;;;;;485036;245;28840;-70
2021/05/10 00:20:56;;;;;;;5.13;2.40;;;18.10;99.90;;;;;;485030;245;28783;-70
2021/05/10 00:22:58;;;;;;;2.53;2.20;;;18.10;99.90;;;;;;485040;245;28820;-71
2021/05/10 00:24:59;;;;;;;2.73;2.10;;;18.10;99.90;;;;;;485036;245;28782;-71
2021/05/10 00:27:00;;;;;;;4.43;2.17;;;18.20;99.90;;;;;;485021;245;28804;-72
2021/05/10 00:29:01;;;;;;;3.10;2.23;;;18.30;99.90;;;;;;485056;245;29146;-70
2021/05/10 00:31:03;;;;;;;6.60;2.00;;;18.40;99.90;;;;;;485023;245;29288;-70
2021/05/10 00:33:04;;;;;;;5.80;2.20;;;18.60;99.90;;;;;;485025;245;29299;-70
2021/05/10 00:35:05;;;;;;;3.40;2.17;;;18.60;99.90;;;;;;485033;245;29287;-70
2021/05/10 00:37:06;;;;;;;2.70;1.90;;;18.60;99.90;;;;;;485016;245;28877;-70
2021/05/10 00:39:08;;;;;;;3.53;2.07;;;18.60;99.90;;;;;;485014;245;28754;-70
2021/05/10 00:41:09;;;;;;;1.90;1.80;;;18.50;99.90;;;;;;485020;245;28793;-71
2021/05/10 00:43:10;;;;;;;3.73;2.17;;;18.40;99.90;;;;;;485037;245;28928;-70
2021/05/10 00:45:11;;;;;;;2.20;1.90;;;18.30;99.90;;;;;;485031;245;28801;-70
2021/05/10 00:47:13;;;;;;;5.87;2.03;;;18.20;99.90;;;;;;485040;245;28792;-72
2021/05/10 00:49:14;;;;;;;5.37;2.30;;;18.20;99.90;;;;;;485037;245;28857;-70
2021/05/10 00:51:15;;;;;;;2.20;1.83;;;18.20;99.90;;;;;;484863;245;28792;-71
2021/05/10 00:53:16;;;;;;;3.97;2.00;;;18.10;99.90;;;;;;485015;245;28758;-70
2021/05/10 00:55:18;;;;;;;2.00;1.90;;;18.00;99.90;;;;;;485034;245;29281;-71
2021/05/10 00:57:19;;;;;;;2.13;1.90;;;17.80;99.90;;;;;;485003;245;29975;-70
2021/05/10 00:59:20;;;;;;;2.17;1.80;;;17.60;99.90;;;;;;485029;245;29293;-70
2021/05/10 01:01:21;;;;;;;4.23;2.03;;;17.60;99.90;;;;;;484952;245;28808;-71
2021/05/10 01:03:23;;;;;;;2.00;1.90;;;17.50;99.90;;;;;;484992;245;28765;-69
2021/05/10 01:05:24;;;;;;;3.33;1.90;;;17.40;99.90;;;;;;484997;245;28799;-71
2021/05/10 01:07:25;;;;;;;2.93;1.97;;;17.30;99.90;;;;;;484934;245;28829;-70
2021/05/10 01:09:26;;;;;;;3.23;1.97;;;17.20;99.90;;;;;;484991;245;28759;-70
2021/05/10 01:11:28;;;;;;;2.10;2.00;;;17.10;99.90;;;;;;484963;245;28796;-71
2021/05/10 01:13:30;;;;;;;5.63;1.90;;;17.00;99.90;;;;;;485053;245;28753;-70
2021/05/10 01:15:30;;;;;;;4.50;2.13;;;17.00;99.90;;;;;;484981;245;28808;-71
2021/05/10 01:17:31;;;;;;;1.97;1.87;;;16.90;99.90;;;;;;485065;245;30160;-70
2021/05/10 01:19:33;;;;;;;2.30;2.10;;;16.80;99.90;;;;;;485050;245;29296;-70
2021/05/10 01:21:34;;;;;;;3.70;2.13;;;16.80;99.90;;;;;;485009;245;29289;-71
2021/05/10 01:23:35;;;;;;;2.20;2.00;;;16.70;99.90;;;;;;485029;245;29218;-70
2021/05/10 01:25:36;;;;;;;3.23;2.00;;;16.70;99.90;;;;;;485020;245;28771;-70
2021/05/10 01:27:38;;;;;;;2.30;2.10;;;16.60;99.90;;;;;;484997;245;28837;-70
2021/05/10 01:29:39;;;;;;;2.57;2.00;;;16.70;99.90;;;;;;485009;245;28776;-70
2021/05/10 01:31:40;;;;;;;2.57;1.90;;;16.60;99.90;;;;;;485033;245;28862;-72
2021/05/10 01:33:41;;;;;;;3.60;2.50;;;16.60;99.90;;;;;;485026;245;28752;-70
2021/05/10 01:35:43;;;;;;;2.50;2.30;;;16.60;99.90;;;;;;485002;245;28793;-70
2021/05/10 01:37:44;;;;;;;5.77;2.17;;;16.70;99.90;;;;;;485010;245;28757;-70
2021/05/10 01:39:45;;;;;;;2.60;2.23;;;16.60;99.90;;;;;;484978;245;28889;-71
2021/05/10 01:41:46;;;;;;;3.30;2.20;;;16.50;99.90;;;;;;485036;245;29269;-71
2021/05/10 01:43:48;;;;;;;3.13;2.13;;;16.60;99.90;;;;;;485012;245;29337;-70
2021/05/10 01:45:49;;;;;;;2.17;1.90;;;16.60;99.90;;;;;;485032;245;29259;-70
2021/05/10 01:47:50;;;;;;;2.00;1.90;;;16.70;99.90;;;;;;485020;245;28870;-70
2021/05/10 01:49:51;;;;;;;4.00;1.80;;;16.90;99.90;;;;;;485006;245;28815;-70
2021/05/10 01:51:53;;;;;;;3.30;2.33;;;16.90;99.90;;;;;;485025;245;28844;-72
2021/05/10 01:53:54;;;;;;;2.90;2.30;;;16.90;99.90;;;;;;485032;241;28750;-70
2021/05/10 01:55:55;;;;;;;4.27;2.43;;;17.20;99.90;;;;;;485011;245;28801;-71
2021/05/10 01:57:56;;;;;;;2.40;2.20;;;17.30;99.90;;;;;;485017;245;28777;-70
2021/05/10 01:59:58;;;;;;;2.40;2.20;;;17.30;99.90;;;;;;485005;245;29197;-70
2021/05/10 02:01:59;;;;;;;2.50;2.30;;;17.40;99.90;;;;;;485032;245;28787;-72
2021/05/10 02:04:00;;;;;;;4.10;2.03;;;17.60;99.90;;;;;;485026;245;28786;-70
2021/05/10 02:06:01;;;;;;;3.07;2.23;;;17.70;99.90;;;;;;485038;245;29307;-71
2021/05/10 02:08:03;;;;;;;7.93;2.47;;;17.70;99.90;;;;;;485040;245;29227;-70
2021/05/10 02:10:04;;;;;;;1.80;1.70;;;17.70;99.90;;;;;;485035;245;29371;-71
2021/05/10 02:12:05;;;;;;;2.93;2.20;;;17.80;99.90;;;;;;485013;245;28872;-73
2021/05/10 02:14:06;;;;;;;2.47;2.03;;;17.90;99.90;;;;;;485030;245;28816;-70
2021/05/10 02:16:08;;;;;;;4.63;1.90;;;17.90;99.90;;;;;;485012;245;28895;-70
2021/05/10 02:18:09;;;;;;;2.90;2.30;;;17.90;99.90;;;;;;485037;245;28745;-70
2021/05/10 02:20:10;;;;;;;2.03;1.80;;;17.90;99.90;;;;;;485017;244;28801;-71
2021/05/10 02:22:11;;;;;;;2.57;2.13;;;17.80;99.90;;;;;;485036;245;29144;-70
2021/05/10 02:24:13;;;;;;;2.23;2.03;;;17.90;99.90;;;;;;485055;245;28768;-70
2021/05/10 02:26:14;;;;;;;2.10;1.90;;;17.90;99.90;;;;;;485042;245;28799;-71
2021/05/10 02:28:15;;;;;;;2.23;2.03;;;17.90;99.90;;;;;;485038;245;28748;-70
2021/05/10 02:30:16;;;;;;;3.53;2.00;;;17.90;99.90;;;;;;485014;245;29272;-71
2021/05/10 02:32:18;;;;;;;2.83;2.03;;;17.90;99.90;;;;;;485006;245;29344;-72
2021/05/10 02:34:19;;;;;;;1.90;1.80;;;17.90;99.90;;;;;;485030;245;29306;-71
2021/05/10 02:36:20;;;;;;;7.00;2.13;;;17.90;99.90;;;;;;485017;245;28902;-71
2021/05/10 02:38:21;;;;;;;2.20;2.00;;;17.90;99.90;;;;;;485013;245;28745;-71
2021/05/10 02:40:23;;;;;;;2.47;2.20;;;17.80;99.90;;;;;;485010;245;28799;-71
2021/05/10 02:42:24;;;;;;;2.37;2.17;;;17.80;99.90;;;;;;485029;245;28855;-70
2021/05/10 02:44:25;;;;;;;7.40;2.30;;;17.90;99.90;;;;;;485057;245;28808;-70
2021/05/10 02:46:26;;;;;;;3.50;2.00;;;17.90;99.90;;;;;;485042;245;28797;-72
2021/05/10 02:48:28;;;;;;;2.70;1.80;;;17.90;99.90;;;;;;485043;245;28756;-70
2021/05/10 02:50:29;;;;;;;2.33;2.10;;;17.90;99.90;;;;;;485039;245;28795;-71
2021/05/10 02:52:30;;;;;;;2.17;2.00;;;17.80;99.90;;;;;;485060;245;28835;-70
2021/05/10 02:54:31;;;;;;;2.20;2.00;;;17.80;99.90;;;;;;485007;245;29195;-71
2021/05/10 02:56:33;;;;;;;2.50;1.93;;;17.80;99.90;;;;;;485039;245;29308;-71
2021/05/10 02:58:34;;;;;;;3.20;1.90;;;17.90;99.90;;;;;;485017;245;29214;-70
2021/05/10 03:00:35;;;;;;;2.23;1.67;;;17.90;99.90;;;;;;485039;245;28804;-70
2021/05/10 03:02:36;;;;;;;2.20;1.87;;;18.00;99.90;;;;;;485040;245;28751;-70
2021/05/10 03:04:38;;;;;;;2.93;2.07;;;18.00;99.90;;;;;;485018;245;28764;-70
2021/05/10 03:06:39;;;;;;;2.00;1.87;;;18.00;99.90;;;;;;485047;245;28788;-72
2021/05/10 03:08:40;;;;;;;4.17;2.33;;;18.00;99.90;;;;;;485041;245;28791;-70
2021/05/10 03:10:41;;;;;;;2.30;2.07;;;18.00;99.90;;;;;;485019;245;28876;-70
2021/05/10 03:12:43;;;;;;;2.60;1.97;;;18.00;99.90;;;;;;485038;245;28817;-70
2021/05/10 03:14:44;;;;;;;2.20;2.00;;;17.90;99.90;;;;;;485021;245;28784;-71
2021/05/10 03:16:45;;;;;;;2.00;1.90;;;17.90;99.90;;;;;;485007;245;28872;-71
2021/05/10 03:18:46;;;;;;;2.40;2.20;;;17.90;99.90;;;;;;485026;245;29299;-71
2021/05/10 03:20:48;;;;;;;3.47;2.00;;;18.00;99.90;;;;;;485037;245;29262;-70
2021/05/10 03:22:51;;;;;;;10.73;2.30;;;17.90;99.90;;;;;;485052;245;29297;-70
2021/05/10 03:24:50;;;;;;;2.57;2.37;;;17.80;99.90;;;;;;484907;245;28810;-71
2021/05/10 03:26:51;;;;;;;4.40;2.27;;;17.90;99.90;;;;;;485038;245;28814;-72
2021/05/10 03:28:53;;;;;;;3.30;2.20;;;17.80;99.90;;;;;;485044;245;28790;-70
2021/05/10 03:30:54;;;;;;;4.57;2.40;;;17.80;99.90;;;;;;485057;245;28787;-70
2021/05/10 03:32:55;;;;;;;4.60;2.20;;;17.70;99.90;;;;;;485039;245;28868;-70
2021/05/10 03:34:56;;;;;;;2.50;2.27;;;17.70;99.90;;;;;;485051;245;28797;-70
2021/05/10 03:36:58;;;;;;;11.30;2.80;;;17.70;99.90;;;;;;485075;245;29123;-73
2021/05/10 03:38:59;;;;;;;2.30;2.10;;;17.70;99.90;;;;;;485060;245;28769;-70
2021/05/10 03:41:00;;;;;;;4.40;2.10;;;17.60;99.90;;;;;;485019;245;29304;-71
2021/05/10 03:43:01;;;;;;;3.50;2.07;;;17.60;99.90;;;;;;485038;245;29255;-70
2021/05/10 03:45:03;;;;;;;4.07;2.40;;;17.50;99.90;;;;;;485034;245;29283;-70
2021/05/10 03:47:04;;;;;;;4.07;2.00;;;17.50;99.90;;;;;;485037;245;28865;-71
2021/05/10 03:49:05;;;;;;;3.77;2.17;;;17.30;99.90;;;;;;485053;245;28745;-70
2021/05/10 03:51:06;;;;;;;5.67;2.70;;;17.30;99.90;;;;;;485059;245;28790;-71
2021/05/10 03:53:08;;;;;;;4.80;2.70;;;17.20;99.90;;;;;;485047;245;28757;-70
2021/05/10 03:55:09;;;;;;;4.00;2.50;;;17.10;99.90;;;;;;485052;245;28805;-70
2021/05/10 03:57:10;;;;;;;4.13;2.40;;;17.10;99.90;;;;;;485005;241;28860;-70
2021/05/10 03:59:11;;;;;;;4.93;2.33;;;17.00;99.90;;;;;;485029;245;28766;-70
2021/05/10 04:01:13;;;;;;;3.67;2.10;;;17.00;99.90;;;;;;485005;245;28881;-71
2021/05/10 04:03:15;;;;;;;2.50;2.23;;;16.90;99.90;;;;;;485004;245;28825;-70
2021/05/10 04:13:52;;;;;;;3.30;2.40;;;16.80;99.90;;;;;;482386;245;29505;-71
2021/05/10 04:15:48;;;;;;;3.83;2.50;;;16.70;99.90;;;;;;484836;245;28837;-70
2021/05/10 04:17:49;;;;;;;2.20;2.03;;;16.70;99.90;;;;;;485019;245;28797;-70
2021/05/10 04:19:51;;;;;;;2.40;2.20;;;16.70;99.90;;;;;;485030;245;28786;-70
2021/05/10 04:21:52;;;;;;;2.80;2.40;;;16.70;99.90;;;;;;485013;245;28888;-71
2021/05/10 04:23:53;;;;;;;3.33;2.37;;;16.70;99.90;;;;;;485010;245;29158;-72
2021/05/10 04:25:54;;;;;;;3.60;2.20;;;16.70;99.90;;;;;;485043;245;28741;-70
2021/05/10 04:27:56;;;;;;;3.43;2.30;;;16.70;99.90;;;;;;485030;245;28790;-70
2021/05/10 04:29:57;;;;;;;12.50;2.50;;;16.70;99.90;;;;;;485039;245;28845;-70
2021/05/10 04:31:58;;;;;;;2.40;2.20;;;16.70;99.90;;;;;;485011;245;29358;-71
2021/05/10 04:33:59;;;;;;;3.13;2.20;;;16.70;99.90;;;;;;485015;245;29342;-73
2021/05/10 04:36:01;;;;;;;2.37;2.17;;;16.70;99.90;;;;;;485010;245;29390;-70
2021/05/10 04:38:06;;;;;;;2.93;2.13;;;16.70;99.90;;;;;;485021;245;28848;-71
2021/05/10 04:40:03;;;;;;;3.60;2.70;;;16.70;99.90;;;;;;484837;245;28752;-70
2021/05/10 04:42:04;;;;;;;2.53;2.07;;;16.80;99.90;;;;;;485011;245;28827;-71
2021/05/10 04:44:06;;;;;;;4.33;2.47;;;16.70;99.90;;;;;;485014;245;28784;-71
2021/05/10 04:46:07;;;;;;;3.93;2.43;;;16.70;99.90;;;;;;485032;245;28821;-71
2021/05/10 04:48:08;;;;;;;4.47;2.50;;;16.70;99.90;;;;;;485042;245;28792;-71
2021/05/10 04:50:09;;;;;;;3.47;2.47;;;16.80;99.90;;;;;;485076;245;28861;-70
2021/05/10 04:52:11;;;;;;;3.43;2.07;;;16.80;99.90;;;;;;485030;245;28859;-70
2021/05/10 04:54:12;;;;;;;4.03;2.40;;;16.80;99.90;;;;;;485046;245;28824;-71
2021/05/10 04:56:13;;;;;;;2.10;1.90;;;16.80;99.90;;;;;;485063;245;29274;-70
2021/05/10 04:58:14;;;;;;;1.97;1.83;;;16.80;99.90;;;;;;485054;245;29283;-72
2021/05/10 05:00:16;;;;;;;2.17;2.00;;;16.80;99.90;;;;;;485024;245;29576;-70
2021/05/10 05:02:17;;;;;;;3.47;2.10;;;16.80;99.90;;;;;;484932;245;28868;-71
2021/05/10 05:04:18;;;;;;;3.60;2.40;;;16.80;99.90;;;;;;485010;245;28773;-71
2021/05/10 05:06:19;;;;;;;3.87;2.37;;;16.80;99.90;;;;;;485025;245;28753;-70
2021/05/10 05:08:21;;;;;;;2.60;2.40;;;16.70;99.90;;;;;;485022;245;28798;-71
2021/05/10 05:10:22;;;;;;;5.53;2.60;;;16.70;99.90;;;;;;485010;245;28816;-71
2021/05/10 05:12:23;;;;;;;6.37;2.23;;;16.70;99.90;;;;;;485035;245;28901;-71
2021/05/10 05:14:24;;;;;;;3.17;2.60;;;16.60;99.90;;;;;;485010;245;29170;-70
2021/05/10 05:16:26;;;;;;;5.63;2.17;;;16.70;99.90;;;;;;484987;245;28797;-70
2021/05/10 05:18:27;;;;;;;3.30;2.30;;;16.60;99.90;;;;;;485018;245;28812;-71
2021/05/10 05:20:30;;;;;;;3.97;2.70;;;16.60;99.90;;;;;;484985;245;29311;-70
2021/05/10 05:22:29;;;;;;;4.43;2.27;;;16.60;99.90;;;;;;484951;245;29505;-71
2021/05/10 05:24:31;;;;;;;1.97;1.83;;;16.70;99.90;;;;;;485026;245;29303;-70
2021/05/10 05:26:32;;;;;;;3.80;2.23;;;16.60;99.90;;;;;;484999;245;28847;-71
2021/05/10 05:28:33;;;;;;;3.00;2.03;;;16.70;99.90;;;;;;485032;245;28886;-73
2021/05/10 05:30:34;;;;;;;7.20;2.20;;;16.60;99.90;;;;;;484996;245;28788;-71
2021/05/10 05:32:36;;;;;;;2.57;2.03;;;16.60;99.90;;;;;;485029;245;28786;-71
2021/05/10 05:34:37;;;;;;;3.73;2.37;;;16.60;99.90;;;;;;485024;245;28841;-71
2021/05/10 05:36:38;;;;;;;3.63;2.23;;;16.60;99.90;;;;;;485003;245;28884;-70
2021/05/10 05:38:41;;;;;;;4.67;2.00;;;16.50;99.90;;;;;;485019;245;29248;-72
2021/05/10 05:40:41;;;;;;;4.20;2.20;;;16.50;99.90;;;;;;484971;245;28813;-70
2021/05/10 05:42:42;;;;;;;5.23;2.83;;;16.60;99.90;;;;;;485018;245;28861;-71
2021/05/10 05:44:48;;;;;;;5.20;2.63;;;16.70;99.90;;;;;;485053;245;29328;-70
2021/05/10 05:46:49;;;;;;;2.30;2.10;;;16.70;99.90;;;;;;484826;245;29353;-71
2021/05/10 05:48:46;;;;;;;2.43;2.23;;;16.80;99.90;;;;;;484870;245;29327;-73
2021/05/10 05:50:47;;;;;;;3.33;1.93;;;16.80;99.90;;;;;;485018;245;28759;-70
2021/05/10 05:52:48;;;;;;;2.37;2.17;;;16.80;99.90;;;;;;485022;245;28786;-71
2021/05/10 05:54:51;;;;;;;2.70;2.03;;;16.80;99.90;;;;;;485043;245;28875;-71
2021/05/10 05:56:51;;;;;;;3.77;2.10;;;16.80;99.90;;;;;;484983;245;28868;-70
2021/05/10 05:58:52;;;;;;;2.63;2.00;;;16.80;99.90;;;;;;485025;245;29220;-70
2021/05/10 06:00:53;;;;;;;3.43;2.17;;;16.70;99.90;;;;;;485037;245;28775;-71
2021/05/10 06:02:54;;;;;;;8.73;2.60;;;16.80;99.90;;;;;;485000;245;28789;-72
2021/05/10 06:04:56;;;;;;;4.07;2.37;;;16.70;99.90;;;;;;485032;245;28813;-71
2021/05/10 06:06:57;;;;;;;2.10;1.90;;;16.60;99.90;;;;;;484982;245;28894;-71
2021/05/10 06:08:58;;;;;;;3.10;2.20;;;16.60;99.90;;;;;;485039;241;29304;-70
2021/05/10 06:11:01;;;;;;;3.57;2.30;;;16.60;99.90;;;;;;484947;245;29232;-70
2021/05/10 06:13:01;;;;;;;3.43;2.30;;;16.60;99.90;;;;;;484881;245;29324;-71
2021/05/10 06:15:02;;;;;;;4.50;2.00;;;16.60;99.90;;;;;;485002;245;28844;-71
2021/05/10 06:17:03;;;;;;;3.30;2.00;;;16.60;99.90;;;;;;485025;245;28840;-71
2021/05/10 06:19:05;;;;;;;8.20;2.60;;;16.60;99.90;;;;;;485041;245;28778;-71
2021/05/10 06:21:09;;;;;;;4.43;2.80;;;16.60;99.90;;;;;;485023;245;28852;-71
2021/05/10 06:23:10;;;;;;;4.43;2.60;;;16.60;99.90;;;;;;485034;245;28789;-71
2021/05/10 06:25:11;;;;;;;2.33;2.13;;;16.60;99.90;;;;;;485024;245;28784;-71
2021/05/10 06:27:12;;;;;;;3.60;2.00;;;16.50;99.90;;;;;;485034;245;28745;-71
2021/05/10 06:29:14;;;;;;;2.83;2.33;;;16.50;99.90;;;;;;485027;245;28861;-71
2021/05/10 06:31:15;;;;;;;2.53;2.10;;;16.50;99.90;;;;;;485037;245;28790;-73
2021/05/10 06:33:16;;;;;;;3.43;2.20;;;16.40;99.90;;;;;;485049;245;28830;-70
2021/05/10 06:35:17;;;;;;;3.60;2.03;;;16.40;99.90;;;;;;485050;245;28803;-71
2021/05/10 06:37:20;;;;;;;3.40;2.50;;;16.50;99.90;;;;;;485035;245;29222;-71
2021/05/10 06:39:20;;;;;;;3.53;2.10;;;16.40;99.90;;;;;;485000;245;29385;-71
2021/05/10 06:41:21;;;;;;;3.23;2.17;;;16.50;99.90;;;;;;485040;245;29415;-71
2021/05/10 06:43:22;;;;;;;4.53;2.50;;;16.50;99.90;;;;;;485024;245;29232;-71
2021/05/10 06:45:24;;;;;;;3.73;2.37;;;16.50;99.90;;;;;;485037;245;28883;-71
2021/05/10 06:47:26;;;;;;;2.50;1.90;;;16.50;99.90;;;;;;485038;245;28796;-70
2021/05/10 06:49:26;;;;;;;3.73;2.30;;;16.50;99.90;;;;;;484989;245;28859;-72
2021/05/10 06:51:27;;;;;;;2.53;2.33;;;16.60;99.90;;;;;;485044;245;28770;-71
2021/05/10 06:53:29;;;;;;;4.63;2.27;;;16.50;99.90;;;;;;485047;245;28749;-70
2021/05/10 06:55:30;;;;;;;5.17;2.63;;;16.40;99.90;;;;;;485029;245;28804;-70
2021/05/10 06:57:31;;;;;;;4.03;2.30;;;16.30;99.90;;;;;;485021;245;28852;-70
2021/05/10 06:59:32;;;;;;;2.80;2.00;;;16.30;99.90;;;;;;485012;245;28784;-71
2021/05/10 07:01:34;;;;;;;2.73;1.97;;;16.20;99.90;;;;;;485021;245;29836;-70
2021/05/10 07:03:35;;;;;;;2.10;2.00;;;16.30;99.90;;;;;;484906;245;29232;-70
2021/05/10 07:05:36;;;;;;;2.73;2.10;;;16.40;99.90;;;;;;485060;245;29246;-71
2021/05/10 07:07:37;;;;;;;3.27;2.03;;;16.40;99.90;;;;;;485050;245;29204;-70
2021/05/10 07:09:39;;;;;;;2.50;2.07;;;16.30;99.90;;;;;;485057;245;28852;-71
2021/05/10 07:11:40;;;;;;;5.40;2.10;;;16.40;99.90;;;;;;485058;245;28768;-70
2021/05/10 07:13:41;;;;;;;2.77;2.10;;;16.40;99.90;;;;;;485045;245;28785;-70
2021/05/10 07:15:42;;;;;;;2.73;1.93;;;16.30;99.90;;;;;;485060;245;28784;-71
2021/05/10 07:17:44;;;;;;;2.10;1.90;;;16.30;99.90;;;;;;485042;245;28865;-70
2021/05/10 07:19:45;;;;;;;4.80;2.27;;;16.30;99.90;;;;;;485046;245;28882;-71
2021/05/10 07:21:46;;;;;;;3.30;1.80;;;16.30;99.90;;;;;;485060;245;28829;-70
2021/05/10 07:23:47;;;;;;;1.90;1.70;;;16.20;99.90;;;;;;484737;245;28877;-71
2021/05/10 07:25:49;;;;;;;2.50;1.90;;;16.20;99.90;;;;;;485034;245;29248;-72
2021/05/10 07:27:50;;;;;;;2.30;1.70;;;16.30;99.90;;;;;;485026;245;29273;-70
2021/05/10 07:29:51;;;;;;;1.87;1.73;;;16.30;99.90;;;;;;485037;245;29269;-71
2021/05/10 07:31:53;;;;;;;5.27;1.83;;;16.40;99.90;;;;;;485063;245;29420;-70
2021/05/10 07:33:54;;;;;;;2.23;1.50;;;16.50;99.90;;;;;;485017;245;28877;-71
2021/05/10 07:35:55;;;;;;;3.10;1.90;;;16.50;99.90;;;;;;485048;245;28795;-73
2021/05/10 07:37:56;;;;;;;3.50;1.70;;;16.50;99.90;;;;;;485047;245;28748;-70
2021/05/10 07:39:58;;;;;;;2.20;1.60;;;16.50;99.90;;;;;;485033;245;28793;-71
2021/05/10 07:41:59;;;;;;;2.30;1.60;;;16.50;99.90;;;;;;484991;245;28767;-70
2021/05/10 07:44:00;;;;;;;4.10;1.90;;;16.50;99.90;;;;;;485028;245;28804;-70
2021/05/10 07:46:01;;;;;;;3.33;1.70;;;16.30;99.90;;;;;;485035;245;29236;-72
2021/05/10 07:48:03;;;;;;;2.10;1.63;;;16.30;99.90;;;;;;485030;245;28755;-71
2021/05/10 07:50:04;;;;;;;1.50;1.40;;;16.20;99.90;;;;;;485056;245;29363;-71
2021/05/10 07:52:05;;;;;;;1.60;1.50;;;16.20;99.90;;;;;;485055;245;29329;-70
2021/05/10 07:54:06;;;;;;;1.40;1.30;;;16.10;99.90;;;;;;485039;245;29265;-70
2021/05/10 07:56:08;;;;;;;1.50;1.30;;;16.00;99.90;;;;;;485046;245;29297;-72
2021/05/10 07:58:09;;;;;;;1.40;1.30;;;16.00;99.90;;;;;;485037;245;28743;-70
2021/05/10 08:00:13;;;;;;;1.50;1.40;;;16.00;99.90;;;;;;485033;245;28886;-71
2021/05/10 08:02:11;;;;;;;1.40;1.30;;;16.00;99.90;;;;;;484900;245;28789;-70
2021/05/10 08:04:13;;;;;;;4.73;1.23;;;16.00;99.90;;;;;;485027;245;28765;-71
2021/05/10 08:06:14;;;;;;;2.40;1.27;;;16.00;99.90;;;;;;485036;245;29220;-72
2021/05/10 08:08:17;;;;;;;1.40;1.20;;;16.00;99.90;;;;;;485019;245;28747;-70
2021/05/10 08:10:16;;;;;;;1.10;1.10;;;16.00;99.90;;;;;;484961;245;28871;-70
2021/05/10 08:12:18;;;;;;;4.10;1.50;;;16.00;99.90;;;;;;484786;245;28741;-70
2021/05/10 08:14:19;;;;;;;1.57;1.40;;;16.20;99.90;;;;;;485050;245;29320;-71
2021/05/10 08:16:20;;;;;;;1.27;1.20;;;16.30;99.90;;;;;;485044;245;29344;-72
2021/05/10 08:18:21;;;;;;;1.47;1.10;;;16.50;99.90;;;;;;485060;245;29197;-71
2021/05/10 08:20:23;;;;;;;1.10;1.10;;;16.70;99.90;;;;;;485030;245;29283;-71
2021/05/10 08:22:24;;;;;;;1.10;1.10;;;16.80;99.90;;;;;;485061;245;28745;-71
2021/05/10 08:24:25;;;;;;;1.20;1.20;;;16.80;99.90;;;;;;485050;245;28779;-71
2021/05/10 08:26:26;;;;;;;1.20;1.10;;;16.80;99.90;;;;;;485024;245;28765;-70
2021/05/10 08:28:28;;;;;;;1.20;1.10;;;16.90;99.90;;;;;;485040;245;28741;-71
2021/05/10 08:30:29;;;;;;;1.10;1.10;;;16.80;99.90;;;;;;485037;245;28797;-72
2021/05/10 08:32:30;;;;;;;1.33;1.20;;;16.50;99.90;;;;;;485045;245;28796;-70
2021/05/10 08:34:31;;;;;;;1.23;1.13;;;16.40;99.90;;;;;;485021;245;28847;-70
2021/05/10 08:36:33;;;;;;;1.27;1.17;;;16.30;99.90;;;;;;485022;245;28839;-70
2021/05/10 08:38:34;;;;;;;3.20;1.43;;;16.20;99.90;;;;;;485033;245;29284;-71
2021/05/10 08:40:35;;;;;;;1.07;1.00;;;16.30;99.90;;;;;;485011;245;29309;-72
2021/05/10 08:42:36;;;;;;;1.30;1.20;;;16.50;99.90;;;;;;485004;245;29207;-70
2021/05/10 08:44:38;;;;;;;1.33;1.20;;;16.70;99.90;;;;;;484991;245;28857;-71
2021/05/10 08:46:39;;;;;;;1.00;1.00;;;17.00;99.90;;;;;;484950;245;28752;-70
2021/05/10 08:48:40;;;;;;;1.27;1.17;;;17.20;99.90;;;;;;484991;245;28851;-70
2021/05/10 08:50:41;;;;;;;2.10;1.20;;;17.20;99.90;;;;;;484968;245;28798;-73
2021/05/10 08:52:43;;;;;;;2.30;1.33;;;17.10;99.90;;;;;;484961;245;28750;-70
2021/05/10 08:54:44;;;;;;;1.33;1.23;;;16.90;99.90;;;;;;485014;245;28876;-71
2021/05/10 08:56:45;;;;;;;2.23;1.23;;;16.80;99.90;;;;;;484991;245;28854;-70
2021/05/10 08:58:46;;;;;;;1.40;1.27;;;16.80;99.90;;;;;;485005;245;28778;-71
2021/05/10 09:00:48;;;;;;;1.07;1.00;;;16.70;99.90;;;;;;485004;245;28810;-73
2021/05/10 09:02:49;;;;;;;1.20;1.17;;;16.30;99.90;;;;;;485013;245;29203;-70
2021/05/10 09:04:50;;;;;;;1.10;1.10;;;16.20;99.90;;;;;;484998;245;29285;-71
2021/05/10 09:06:51;;;;;;;1.33;1.03;;;16.00;99.90;;;;;;485032;245;29309;-70
2021/05/10 09:08:53;;;;;;;1.03;0.93;;;15.90;99.90;;;;;;484762;245;28780;-70
2021/05/10 09:10:54;;;;;;;0.90;0.90;;;15.80;99.90;;;;;;484973;245;28760;-72
2021/05/10 09:12:56;;;;;;;1.30;1.20;;;15.70;99.90;;;;;;485015;245;28802;-70
2021/05/10 09:14:56;;;;;;;2.13;1.10;;;15.60;99.90;;;;;;485015;245;28837;-70
2021/05/10 09:16:58;;;;;;;2.50;1.43;;;15.70;99.90;;;;;;485043;245;28747;-70
2021/05/10 09:18:59;;;;;;;1.20;1.10;;;15.70;99.90;;;;;;485056;245;28801;-70
2021/05/10 09:21:00;;;;;;;1.17;1.00;;;15.60;99.90;;;;;;485025;245;29131;-72
2021/05/10 09:23:02;;;;;;;1.00;1.00;;;15.60;99.90;;;;;;485049;245;28803;-70
2021/05/10 09:25:03;;;;;;;1.47;1.00;;;15.90;99.90;;;;;;485053;245;28772;-71
2021/05/10 09:27:04;;;;;;;1.00;1.00;;;15.90;99.90;;;;;;485049;245;29289;-70
2021/05/10 09:29:05;;;;;;;1.37;1.00;;;15.90;99.90;;;;;;485057;245;29311;-71
2021/05/10 09:31:06;;;;;;;1.20;1.20;;;15.60;99.90;;;;;;485057;245;29263;-73
2021/05/10 09:33:08;;;;;;;1.00;1.00;;;15.70;99.90;;;;;;485076;245;28828;-71
2021/05/10 09:35:09;;;;;;;2.03;1.23;;;15.60;99.90;;;;;;485040;245;28773;-71
2021/05/10 09:37:12;;;;;;;4.57;1.10;;;15.60;99.90;;;;;;484891;245;28785;-71
2021/05/10 09:39:11;;;;;;;3.77;1.53;;;15.60;99.90;;;;;;484985;245;28791;-70
2021/05/10 09:41:13;;;;;;;1.63;1.50;;;15.70;99.90;;;;;;484967;245;29148;-72
2021/05/10 09:43:14;;;;;;;1.23;1.13;;;15.70;99.90;;;;;;484947;245;28832;-70
2021/05/10 09:45:15;;;;;;;1.13;1.10;;;15.60;99.90;;;;;;485036;245;28796;-71
2021/05/10 09:47:16;;;;;;;2.07;1.20;;;15.60;99.90;;;;;;485028;245;28750;-70
2021/05/10 09:49:18;;;;;;;1.30;1.20;;;15.50;99.90;;;;;;485004;245;28790;-71
2021/05/10 09:51:19;;;;;;;1.37;1.20;;;15.40;99.90;;;;;;485002;245;29345;-72
2021/05/10 09:53:21;;;;;;;1.27;1.17;;;15.30;99.90;;;;;;485057;245;29370;-70
2021/05/10 09:55:21;;;;;;;1.30;1.20;;;15.30;99.90;;;;;;485009;245;29303;-71
2021/05/10 09:57:23;;;;;;;4.80;1.20;;;15.30;99.90;;;;;;485072;245;28773;-71
2021/05/10 09:59:24;;;;;;;1.83;1.13;;;15.30;99.90;;;;;;485056;245;28875;-71
2021/05/10 10:01:25;;;;;;;1.00;1.00;;;15.40;99.90;;;;;;485044;245;28878;-70
2021/05/10 10:03:26;;;;;;;1.03;1.00;;;15.50;99.90;;;;;;485040;245;28756;-70
2021/05/10 10:05:28;;;;;;;1.50;1.30;;;15.70;99.90;;;;;;485033;245;28772;-71
2021/05/10 10:07:29;;;;;;;1.23;1.13;;;15.80;99.90;;;;;;485023;245;28773;-70
2021/05/10 10:09:30;;;;;;;2.30;1.30;;;15.80;99.90;;;;;;485031;245;28830;-70
2021/05/10 10:11:31;;;;;;;1.40;1.30;;;15.80;99.90;;;;;;485032;245;28862;-72
2021/05/10 10:13:33;;;;;;;1.37;1.20;;;15.80;99.90;;;;;;485030;245;28762;-69
2021/05/10 10:15:34;;;;;;;1.50;1.40;;;15.90;99.90;;;;;;485056;245;29367;-71
2021/05/10 10:17:35;;;;;;;1.20;1.20;;;15.80;99.90;;;;;;485058;245;29295;-70
2021/05/10 10:19:36;;;;;;;1.40;1.30;;;15.60;99.90;;;;;;485053;245;29267;-69
2021/05/10 10:21:38;;;;;;;1.77;1.30;;;15.70;99.90;;;;;;485036;245;28769;-69
2021/05/10 10:23:39;;;;;;;3.13;1.60;;;15.60;99.90;;;;;;484989;245;28902;-70
2021/05/10 10:25:40;;;;;;;3.17;1.40;;;15.70;99.90;;;;;;484982;245;28849;-71
2021/05/10 10:27:41;;;;;;;1.50;1.40;;;15.60;99.90;;;;;;485049;245;28746;-70
2021/05/10 10:29:43;;;;;;;1.67;1.40;;;15.70;99.90;;;;;;485047;240;28777;-70
2021/05/10 10:31:44;;;;;;;5.90;1.40;;;15.70;99.90;;;;;;485034;245;28847;-69
2021/05/10 10:33:46;;;;;;;1.50;1.40;;;15.70;99.90;;;;;;485046;245;28843;-69
2021/05/10 10:35:46;;;;;;;1.43;1.33;;;15.50;99.90;;;;;;485046;245;28776;-71
2021/05/10 10:37:48;;;;;;;1.80;1.67;;;15.40;99.90;;;;;;485087;245;29253;-70